sensor_id;sensor_type;location;lat;lon;timestamp;pressure;altitude;pressure_sealevel;temperature;humidity
6506;BME280;3286;49.858;8.768;2023-02-12T00:02:20;101254.50;;;8.77;54.77
6506;BME280;3286;49.858;8.768;2023-02-12T00:04:47;101259.06;;;8.90;54.25
6506;BME280;3286;49.858;8.768;2023-02-12T00:07:13;101259.38;;;8.99;54.19
6506;BME280;3286;49.858;8.768;2023-02-12T00:09:42;101262.34;;;8.79;54.85
6506;BME280;3286;49.858;8.768;2023-02-12T00:12:09;101252.78;;;8.92;54.47
6506;BME280;3286;49.858;8.768;2023-02-12T00:14:36;101249.28;;;8.92;54.33
6506;BME280;3286;49.858;8.768;2023-02-12T00:17:02;101255.47;;;8.91;54.49
6506;BME280;3286;49.858;8.768;2023-02-12T00:19:29;101253.56;;;9.09;54.00
6506;BME280;3286;49.858;8.768;2023-02-12T00:21:55;101261.78;;;8.58;55.22
6506;BME280;3286;49.858;8.768;2023-02-12T00:24:22;101266.75;;;8.78;55.17
6506;BME280;3286;49.858;8.768;2023-02-12T00:26:50;101269.72;;;8.72;54.84
6506;BME280;3286;49.858;8.768;2023-02-12T00:29:17;101256.72;;;8.69;54.55
6506;BME280;3286;49.858;8.768;2023-02-12T00:31:44;101258.00;;;8.78;54.28
6506;BME280;3286;49.858;8.768;2023-02-12T00:34:10;101256.91;;;8.66;55.26
6506;BME280;3286;49.858;8.768;2023-02-12T00:36:37;101255.63;;;8.73;54.67
6506;BME280;3286;49.858;8.768;2023-02-12T00:39:04;101249.56;;;8.87;54.45
6506;BME280;3286;49.858;8.768;2023-02-12T00:41:30;101252.22;;;8.71;55.29
6506;BME280;3286;49.858;8.768;2023-02-12T00:43:58;101257.38;;;8.89;54.52
6506;BME280;3286;49.858;8.768;2023-02-12T00:46:25;101263.84;;;8.83;55.30
6506;BME280;3286;49.858;8.768;2023-02-12T00:48:51;101269.72;;;8.88;54.57
6506;BME280;3286;49.858;8.768;2023-02-12T00:51:18;101260.13;;;8.71;54.37
6506;BME280;3286;49.858;8.768;2023-02-12T00:53:44;101270.06;;;8.82;54.13
6506;BME280;3286;49.858;8.768;2023-02-12T00:56:11;101260.78;;;8.75;54.38
6506;BME280;3286;49.858;8.768;2023-02-12T00:58:38;101272.63;;;8.67;55.04
6506;BME280;3286;49.858;8.768;2023-02-12T01:01:06;101268.19;;;8.84;54.49
6506;BME280;3286;49.858;8.768;2023-02-12T01:03:33;101269.91;;;8.69;54.66
6506;BME280;3286;49.858;8.768;2023-02-12T01:05:59;101274.41;;;8.67;54.49
6506;BME280;3286;49.858;8.768;2023-02-12T01:08:26;101263.44;;;8.26;55.21
6506;BME280;3286;49.858;8.768;2023-02-12T01:10:54;101262.75;;;8.39;55.78
6506;BME280;3286;49.858;8.768;2023-02-12T01:13:22;101260.03;;;8.40;55.61
6506;BME280;3286;49.858;8.768;2023-02-12T01:16:00;101256.72;;;8.85;54.63
6506;BME280;3286;49.858;8.768;2023-02-12T01:18:29;101256.16;;;8.64;54.45
6506;BME280;3286;49.858;8.768;2023-02-12T01:20:55;101264.34;;;8.90;53.98
6506;BME280;3286;49.858;8.768;2023-02-12T01:23:23;101265.66;;;8.66;55.09
6506;BME280;3286;49.858;8.768;2023-02-12T01:25:50;101256.97;;;8.48;55.36
6506;BME280;3286;49.858;8.768;2023-02-12T01:28:16;101258.59;;;8.67;55.52
6506;BME280;3286;49.858;8.768;2023-02-12T01:30:43;101256.41;;;8.59;55.51
6506;BME280;3286;49.858;8.768;2023-02-12T01:33:09;101256.03;;;8.33;55.85
6506;BME280;3286;49.858;8.768;2023-02-12T01:35:37;101260.16;;;8.55;55.72
6506;BME280;3286;49.858;8.768;2023-02-12T01:38:04;101256.44;;;8.74;54.97
6506;BME280;3286;49.858;8.768;2023-02-12T01:40:31;101258.09;;;8.60;55.67
6506;BME280;3286;49.858;8.768;2023-02-12T01:43:00;101252.38;;;8.20;56.16
6506;BME280;3286;49.858;8.768;2023-02-12T01:45:43;101255.13;;;8.50;55.75
6506;BME280;3286;49.858;8.768;2023-02-12T01:48:12;101246.59;;;8.45;55.91
6506;BME280;3286;49.858;8.768;2023-02-12T01:50:43;101254.94;;;8.53;56.31
6506;BME280;3286;49.858;8.768;2023-02-12T01:53:12;101246.38;;;8.50;55.67
6506;BME280;3286;49.858;8.768;2023-02-12T01:55:45;101242.28;;;8.44;55.67
6506;BME280;3286;49.858;8.768;2023-02-12T01:58:13;101242.88;;;8.33;55.91
6506;BME280;3286;49.858;8.768;2023-02-12T02:00:40;101247.47;;;8.46;55.90
6506;BME280;3286;49.858;8.768;2023-02-12T02:03:06;101241.28;;;8.63;55.49
6506;BME280;3286;49.858;8.768;2023-02-12T02:05:40;101251.53;;;8.67;55.67
6506;BME280;3286;49.858;8.768;2023-02-12T02:08:10;101246.72;;;8.60;55.26
6506;BME280;3286;49.858;8.768;2023-02-12T02:10:37;101244.72;;;8.31;56.71
6506;BME280;3286;49.858;8.768;2023-02-12T02:13:05;101248.41;;;8.45;55.59
6506;BME280;3286;49.858;8.768;2023-02-12T02:15:54;101245.50;;;8.65;55.48
6506;BME280;3286;49.858;8.768;2023-02-12T02:18:27;101241.25;;;8.47;55.94
6506;BME280;3286;49.858;8.768;2023-02-12T02:24:21;101247.88;;;8.86;55.70
6506;BME280;3286;49.858;8.768;2023-02-12T02:27:16;101243.38;;;8.72;56.01
6506;BME280;3286;49.858;8.768;2023-02-12T02:30:34;101243.56;;;8.53;56.50
6506;BME280;3286;49.858;8.768;2023-02-12T02:33:23;101246.38;;;8.66;55.87
6506;BME280;3286;49.858;8.768;2023-02-12T02:35:54;101250.09;;;8.78;55.46
6506;BME280;3286;49.858;8.768;2023-02-12T02:38:31;101247.69;;;8.89;55.55
6506;BME280;3286;49.858;8.768;2023-02-12T02:41:03;101244.50;;;8.36;56.85
6506;BME280;3286;49.858;8.768;2023-02-12T02:43:34;101246.97;;;8.55;56.33
6506;BME280;3286;49.858;8.768;2023-02-12T02:46:07;101251.88;;;8.77;55.83
6506;BME280;3286;49.858;8.768;2023-02-12T02:48:39;101247.78;;;8.72;55.43
6506;BME280;3286;49.858;8.768;2023-02-12T02:51:11;101241.91;;;8.82;55.47
6506;BME280;3286;49.858;8.768;2023-02-12T02:53:42;101240.84;;;9.01;55.07
6506;BME280;3286;49.858;8.768;2023-02-12T02:56:13;101242.81;;;8.97;55.39
6506;BME280;3286;49.858;8.768;2023-02-12T02:58:44;101247.13;;;8.98;55.16
6506;BME280;3286;49.858;8.768;2023-02-12T03:01:16;101254.16;;;8.67;56.40
6506;BME280;3286;49.858;8.768;2023-02-12T03:03:47;101249.84;;;8.66;56.06
6506;BME280;3286;49.858;8.768;2023-02-12T03:06:20;101252.72;;;8.78;55.88
6506;BME280;3286;49.858;8.768;2023-02-12T03:08:52;101246.44;;;8.64;56.05
6506;BME280;3286;49.858;8.768;2023-02-12T03:11:23;101247.97;;;8.68;55.71
6506;BME280;3286;49.858;8.768;2023-02-12T03:13:56;101247.59;;;8.75;56.10
6506;BME280;3286;49.858;8.768;2023-02-12T03:16:30;101240.31;;;8.80;55.48
6506;BME280;3286;49.858;8.768;2023-02-12T03:19:00;101245.59;;;8.64;55.93
6506;BME280;3286;49.858;8.768;2023-02-12T03:21:31;101243.34;;;8.88;55.38
6506;BME280;3286;49.858;8.768;2023-02-12T03:24:03;101245.94;;;9.04;55.87
6506;BME280;3286;49.858;8.768;2023-02-12T03:26:38;101248.50;;;8.90;55.66
6506;BME280;3286;49.858;8.768;2023-02-12T03:29:06;101256.13;;;8.80;55.19
6506;BME280;3286;49.858;8.768;2023-02-12T03:31:44;101250.25;;;8.75;55.57
6506;BME280;3286;49.858;8.768;2023-02-12T03:34:17;101249.38;;;8.90;56.03
6506;BME280;3286;49.858;8.768;2023-02-12T03:36:50;101251.22;;;9.04;54.86
6506;BME280;3286;49.858;8.768;2023-02-12T03:39:22;101252.78;;;8.92;55.28
6506;BME280;3286;49.858;8.768;2023-02-12T03:42:00;101253.19;;;9.15;54.47
6506;BME280;3286;49.858;8.768;2023-02-12T03:47:20;101248.25;;;8.94;55.39
6506;BME280;3286;49.858;8.768;2023-02-12T03:49:52;101255.81;;;9.01;55.00
6506;BME280;3286;49.858;8.768;2023-02-12T03:52:22;101254.66;;;8.90;55.49
6506;BME280;3286;49.858;8.768;2023-02-12T03:54:49;101258.06;;;8.76;56.72
6506;BME280;3286;49.858;8.768;2023-02-12T03:57:19;101252.19;;;8.87;55.62
6506;BME280;3286;49.858;8.768;2023-02-12T03:59:46;101256.00;;;8.97;55.49
6506;BME280;3286;49.858;8.768;2023-02-12T04:02:15;101259.19;;;9.03;55.18
6506;BME280;3286;49.858;8.768;2023-02-12T04:04:45;101250.16;;;9.07;55.40
6506;BME280;3286;49.858;8.768;2023-02-12T04:07:12;101261.50;;;8.93;55.56
6506;BME280;3286;49.858;8.768;2023-02-12T04:09:40;101256.84;;;8.98;55.19
6506;BME280;3286;49.858;8.768;2023-02-12T04:12:32;101245.75;;;9.07;55.32
6506;BME280;3286;49.858;8.768;2023-02-12T04:15:10;101252.75;;;9.23;55.14
6506;BME280;3286;49.858;8.768;2023-02-12T04:17:45;101257.38;;;9.19;55.71
6506;BME280;3286;49.858;8.768;2023-02-12T04:20:23;101268.31;;;8.97;56.42
6506;BME280;3286;49.858;8.768;2023-02-12T04:22:54;101267.25;;;9.16;55.20
6506;BME280;3286;49.858;8.768;2023-02-12T04:25:40;101271.50;;;8.39;57.22
6506;BME280;3286;49.858;8.768;2023-02-12T04:28:16;101272.91;;;8.93;56.15
6506;BME280;3286;49.858;8.768;2023-02-12T04:30:54;101277.44;;;8.91;56.81
6506;BME280;3286;49.858;8.768;2023-02-12T04:33:25;101280.53;;;8.67;56.57
6506;BME280;3286;49.858;8.768;2023-02-12T04:36:00;101276.47;;;8.62;57.42
6506;BME280;3286;49.858;8.768;2023-02-12T04:38:31;101287.31;;;8.39;57.83
6506;BME280;3286;49.858;8.768;2023-02-12T04:41:00;101285.63;;;8.54;56.81
6506;BME280;3286;49.858;8.768;2023-02-12T04:43:32;101287.19;;;8.59;57.51
6506;BME280;3286;49.858;8.768;2023-02-12T04:45:59;101291.47;;;8.76;56.91
6506;BME280;3286;49.858;8.768;2023-02-12T04:48:26;101287.44;;;8.54;56.72
6506;BME280;3286;49.858;8.768;2023-02-12T04:50:52;101284.75;;;8.38;57.36
6506;BME280;3286;49.858;8.768;2023-02-12T04:53:20;101293.38;;;8.58;57.59
6506;BME280;3286;49.858;8.768;2023-02-12T04:55:47;101294.22;;;8.74;56.61
6506;BME280;3286;49.858;8.768;2023-02-12T04:58:15;101299.06;;;8.66;57.00
6506;BME280;3286;49.858;8.768;2023-02-12T05:00:41;101291.59;;;8.58;57.16
6506;BME280;3286;49.858;8.768;2023-02-12T05:03:08;101294.47;;;8.69;56.94
6506;BME280;3286;49.858;8.768;2023-02-12T05:05:35;101299.31;;;8.61;57.26
6506;BME280;3286;49.858;8.768;2023-02-12T05:08:01;101289.03;;;8.57;57.59
6506;BME280;3286;49.858;8.768;2023-02-12T05:10:29;101290.03;;;8.38;57.90
6506;BME280;3286;49.858;8.768;2023-02-12T05:12:56;101283.75;;;8.24;58.57
6506;BME280;3286;49.858;8.768;2023-02-12T05:15:22;101291.66;;;8.40;58.38
6506;BME280;3286;49.858;8.768;2023-02-12T05:17:49;101291.16;;;8.50;58.04
6506;BME280;3286;49.858;8.768;2023-02-12T05:20:16;101285.78;;;8.67;56.90
6506;BME280;3286;49.858;8.768;2023-02-12T05:22:42;101281.28;;;8.37;58.00
6506;BME280;3286;49.858;8.768;2023-02-12T05:25:09;101277.63;;;8.40;59.09
6506;BME280;3286;49.858;8.768;2023-02-12T05:27:37;101275.84;;;8.24;59.46
6506;BME280;3286;49.858;8.768;2023-02-12T05:30:04;101278.03;;;8.32;58.77
6506;BME280;3286;49.858;8.768;2023-02-12T05:32:31;101285.28;;;8.29;58.83
6506;BME280;3286;49.858;8.768;2023-02-12T05:34:58;101278.31;;;8.44;58.67
6506;BME280;3286;49.858;8.768;2023-02-12T05:37:24;101287.22;;;8.41;58.63
6506;BME280;3286;49.858;8.768;2023-02-12T05:39:51;101281.28;;;8.21;59.29
6506;BME280;3286;49.858;8.768;2023-02-12T05:42:18;101277.81;;;8.53;58.57
6506;BME280;3286;49.858;8.768;2023-02-12T05:44:46;101281.94;;;8.25;59.50
6506;BME280;3286;49.858;8.768;2023-02-12T05:47:12;101283.31;;;8.16;59.90
6506;BME280;3286;49.858;8.768;2023-02-12T05:49:39;101284.56;;;8.09;60.24
6506;BME280;3286;49.858;8.768;2023-02-12T05:52:07;101276.59;;;8.26;60.36
6506;BME280;3286;49.858;8.768;2023-02-12T05:54:33;101283.13;;;8.03;60.59
6506;BME280;3286;49.858;8.768;2023-02-12T05:57:00;101275.25;;;8.19;59.99
6506;BME280;3286;49.858;8.768;2023-02-12T05:59:26;101285.91;;;8.00;60.51
6506;BME280;3286;49.858;8.768;2023-02-12T06:01:54;101281.44;;;8.34;60.22
6506;BME280;3286;49.858;8.768;2023-02-12T06:04:23;101287.13;;;8.26;59.67
6506;BME280;3286;49.858;8.768;2023-02-12T06:06:50;101282.22;;;8.20;60.17
6506;BME280;3286;49.858;8.768;2023-02-12T06:09:17;101291.88;;;8.20;59.38
6506;BME280;3286;49.858;8.768;2023-02-12T06:11:44;101282.44;;;8.00;60.16
6506;BME280;3286;49.858;8.768;2023-02-12T06:14:13;101287.91;;;7.95;60.46
6506;BME280;3286;49.858;8.768;2023-02-12T06:16:42;101292.22;;;8.14;59.38
6506;BME280;3286;49.858;8.768;2023-02-12T06:19:10;101292.13;;;8.15;58.74
6506;BME280;3286;49.858;8.768;2023-02-12T06:21:37;101296.19;;;8.05;58.83
6506;BME280;3286;49.858;8.768;2023-02-12T06:24:04;101298.16;;;7.15;61.76
6506;BME280;3286;49.858;8.768;2023-02-12T06:26:31;101290.69;;;8.09;58.26
6506;BME280;3286;49.858;8.768;2023-02-12T06:28:57;101303.53;;;7.82;58.90
6506;BME280;3286;49.858;8.768;2023-02-12T06:31:26;101298.59;;;7.76;58.78
6506;BME280;3286;49.858;8.768;2023-02-12T06:33:53;101302.66;;;7.81;58.67
6506;BME280;3286;49.858;8.768;2023-02-12T06:36:22;101308.66;;;7.67;59.02
6506;BME280;3286;49.858;8.768;2023-02-12T06:38:49;101306.78;;;7.69;58.55
6506;BME280;3286;49.858;8.768;2023-02-12T06:41:16;101309.72;;;7.81;58.21
6506;BME280;3286;49.858;8.768;2023-02-12T06:43:43;101316.22;;;7.74;58.31
6506;BME280;3286;49.858;8.768;2023-02-12T06:46:10;101314.22;;;7.61;58.53
6506;BME280;3286;49.858;8.768;2023-02-12T06:48:37;101311.59;;;7.79;57.76
6506;BME280;3286;49.858;8.768;2023-02-12T06:51:05;101318.34;;;7.32;59.72
6506;BME280;3286;49.858;8.768;2023-02-12T06:53:34;101324.75;;;7.08;60.08
6506;BME280;3286;49.858;8.768;2023-02-12T06:56:01;101325.94;;;7.56;58.81
6506;BME280;3286;49.858;8.768;2023-02-12T06:58:28;101333.81;;;7.56;59.31
6506;BME280;3286;49.858;8.768;2023-02-12T07:00:55;101335.72;;;7.17;60.43
6506;BME280;3286;49.858;8.768;2023-02-12T07:03:21;101332.72;;;7.77;59.01
6506;BME280;3286;49.858;8.768;2023-02-12T07:05:48;101334.66;;;7.56;59.17
6506;BME280;3286;49.858;8.768;2023-02-12T07:08:15;101334.59;;;7.58;59.34
6506;BME280;3286;49.858;8.768;2023-02-12T07:10:47;101340.63;;;7.60;59.47
6506;BME280;3286;49.858;8.768;2023-02-12T07:13:14;101345.56;;;7.48;59.79
6506;BME280;3286;49.858;8.768;2023-02-12T07:15:41;101348.38;;;7.63;59.68
6506;BME280;3286;49.858;8.768;2023-02-12T07:18:07;101350.19;;;7.78;59.10
6506;BME280;3286;49.858;8.768;2023-02-12T07:20:34;101347.72;;;7.40;59.83
6506;BME280;3286;49.858;8.768;2023-02-12T07:23:00;101351.84;;;7.46;60.45
6506;BME280;3286;49.858;8.768;2023-02-12T07:25:27;101356.34;;;7.95;59.23
6506;BME280;3286;49.858;8.768;2023-02-12T07:27:55;101356.00;;;7.85;59.46
6506;BME280;3286;49.858;8.768;2023-02-12T07:30:22;101352.53;;;7.67;60.11
6506;BME280;3286;49.858;8.768;2023-02-12T07:32:48;101361.03;;;7.72;59.30
6506;BME280;3286;49.858;8.768;2023-02-12T07:35:15;101362.81;;;7.72;60.10
6506;BME280;3286;49.858;8.768;2023-02-12T07:37:42;101362.00;;;8.05;59.16
6506;BME280;3286;49.858;8.768;2023-02-12T07:40:09;101367.03;;;7.92;59.17
6506;BME280;3286;49.858;8.768;2023-02-12T07:42:35;101364.88;;;8.00;59.47
6506;BME280;3286;49.858;8.768;2023-02-12T07:45:04;101354.53;;;8.13;59.09
6506;BME280;3286;49.858;8.768;2023-02-12T07:47:31;101362.81;;;7.72;60.49
6506;BME280;3286;49.858;8.768;2023-02-12T07:50:00;101362.09;;;8.03;60.22
6506;BME280;3286;49.858;8.768;2023-02-12T07:52:26;101360.56;;;7.99;60.45
6506;BME280;3286;49.858;8.768;2023-02-12T07:54:53;101361.19;;;8.20;59.82
6506;BME280;3286;49.858;8.768;2023-02-12T07:57:19;101359.91;;;8.11;60.27
6506;BME280;3286;49.858;8.768;2023-02-12T07:59:46;101363.28;;;8.14;59.79
6506;BME280;3286;49.858;8.768;2023-02-12T08:02:14;101362.13;;;8.35;59.47
6506;BME280;3286;49.858;8.768;2023-02-12T08:04:40;101369.94;;;8.21;59.00
6506;BME280;3286;49.858;8.768;2023-02-12T08:07:07;101370.63;;;8.24;59.71
6506;BME280;3286;49.858;8.768;2023-02-12T08:09:34;101372.16;;;8.29;59.97
6506;BME280;3286;49.858;8.768;2023-02-12T08:12:00;101371.34;;;8.44;59.22
6506;BME280;3286;49.858;8.768;2023-02-12T08:14:27;101367.38;;;8.53;58.80
6506;BME280;3286;49.858;8.768;2023-02-12T08:16:54;101375.06;;;8.40;59.35
6506;BME280;3286;49.858;8.768;2023-02-12T08:19:22;101379.88;;;8.49;58.77
6506;BME280;3286;49.858;8.768;2023-02-12T08:21:49;101377.03;;;8.36;59.58
6506;BME280;3286;49.858;8.768;2023-02-12T08:24:15;101369.69;;;8.59;59.58
6506;BME280;3286;49.858;8.768;2023-02-12T08:26:42;101377.44;;;8.78;58.43
6506;BME280;3286;49.858;8.768;2023-02-12T08:29:11;101373.00;;;8.95;57.95
6506;BME280;3286;49.858;8.768;2023-02-12T08:31:40;101375.63;;;9.11;57.45
6506;BME280;3286;49.858;8.768;2023-02-12T08:34:15;101378.13;;;8.98;58.79
6506;BME280;3286;49.858;8.768;2023-02-12T08:36:44;101378.19;;;9.12;58.40
6506;BME280;3286;49.858;8.768;2023-02-12T08:39:11;101384.22;;;9.15;58.35
6506;BME280;3286;49.858;8.768;2023-02-12T08:41:38;101383.56;;;9.41;57.94
6506;BME280;3286;49.858;8.768;2023-02-12T08:44:06;101384.00;;;9.34;57.79
6506;BME280;3286;49.858;8.768;2023-02-12T08:46:35;101385.81;;;9.64;56.99
6506;BME280;3286;49.858;8.768;2023-02-12T08:49:04;101380.97;;;9.25;58.02
6506;BME280;3286;49.858;8.768;2023-02-12T08:51:32;101384.25;;;9.29;58.08
6506;BME280;3286;49.858;8.768;2023-02-12T08:54:03;101393.06;;;9.75;57.24
6506;BME280;3286;49.858;8.768;2023-02-12T08:56:31;101387.72;;;9.46;58.52
6506;BME280;3286;49.858;8.768;2023-02-12T08:58:58;101389.81;;;9.24;58.85
6506;BME280;3286;49.858;8.768;2023-02-12T09:01:28;101398.53;;;9.41;59.05
6506;BME280;3286;49.858;8.768;2023-02-12T09:03:55;101393.38;;;9.39;59.34
6506;BME280;3286;49.858;8.768;2023-02-12T09:06:23;101394.59;;;9.79;58.42
6506;BME280;3286;49.858;8.768;2023-02-12T09:08:51;101399.41;;;9.41;58.35
6506;BME280;3286;49.858;8.768;2023-02-12T09:11:21;101391.50;;;9.86;57.75
6506;BME280;3286;49.858;8.768;2023-02-12T09:13:55;101394.06;;;10.03;57.15
6506;BME280;3286;49.858;8.768;2023-02-12T09:16:22;101392.06;;;9.77;58.27
6506;BME280;3286;49.858;8.768;2023-02-12T09:18:49;101392.25;;;9.89;58.02
6506;BME280;3286;49.858;8.768;2023-02-12T09:21:16;101394.81;;;10.19;57.57
6506;BME280;3286;49.858;8.768;2023-02-12T09:23:44;101392.19;;;10.05;58.17
6506;BME280;3286;49.858;8.768;2023-02-12T09:26:13;101391.72;;;10.70;56.27
6506;BME280;3286;49.858;8.768;2023-02-12T09:28:42;101393.31;;;10.58;56.89
6506;BME280;3286;49.858;8.768;2023-02-12T09:31:11;101394.66;;;10.51;56.78
6506;BME280;3286;49.858;8.768;2023-02-12T09:33:39;101392.59;;;10.98;55.48
6506;BME280;3286;49.858;8.768;2023-02-12T09:36:07;101398.63;;;10.58;56.85
6506;BME280;3286;49.858;8.768;2023-02-12T09:38:34;101397.13;;;10.40;56.62
6506;BME280;3286;49.858;8.768;2023-02-12T09:41:18;101397.13;;;10.40;57.41
6506;BME280;3286;49.858;8.768;2023-02-12T09:43:54;101395.81;;;10.62;57.03
6506;BME280;3286;49.858;8.768;2023-02-12T09:46:27;101407.28;;;10.75;56.49
6506;BME280;3286;49.858;8.768;2023-02-12T09:49:02;101406.25;;;10.20;60.65
6506;BME280;3286;49.858;8.768;2023-02-12T09:51:33;101406.38;;;10.47;62.04
6506;BME280;3286;49.858;8.768;2023-02-12T09:54:02;101401.19;;;10.46;59.03
6506;BME280;3286;49.858;8.768;2023-02-12T09:56:33;101402.84;;;10.76;57.88
6506;BME280;3286;49.858;8.768;2023-02-12T09:59:04;101398.44;;;10.47;59.22
6506;BME280;3286;49.858;8.768;2023-02-12T10:01:32;101392.69;;;10.97;57.52
6506;BME280;3286;49.858;8.768;2023-02-12T10:03:59;101399.25;;;10.77;57.41
6506;BME280;3286;49.858;8.768;2023-02-12T10:06:28;101400.72;;;10.95;56.12
6506;BME280;3286;49.858;8.768;2023-02-12T10:09:05;101399.59;;;11.67;55.15
6506;BME280;3286;49.858;8.768;2023-02-12T10:11:43;101393.56;;;10.97;56.50
6506;BME280;3286;49.858;8.768;2023-02-12T10:14:23;101395.31;;;11.11;56.59
6506;BME280;3286;49.858;8.768;2023-02-12T10:16:58;101398.19;;;10.94;56.49
6506;BME280;3286;49.858;8.768;2023-02-12T10:19:44;101400.06;;;11.19;56.64
6506;BME280;3286;49.858;8.768;2023-02-12T10:22:21;101397.13;;;10.69;56.99
6506;BME280;3286;49.858;8.768;2023-02-12T10:24:59;101395.13;;;10.58;57.40
6506;BME280;3286;49.858;8.768;2023-02-12T10:27:37;101389.66;;;11.03;56.14
6506;BME280;3286;49.858;8.768;2023-02-12T10:30:13;101388.94;;;11.14;55.68
6506;BME280;3286;49.858;8.768;2023-02-12T10:32:43;101393.59;;;11.10;55.62
6506;BME280;3286;49.858;8.768;2023-02-12T10:35:12;101385.94;;;11.33;54.95
6506;BME280;3286;49.858;8.768;2023-02-12T10:37:42;101389.09;;;11.53;54.57
6506;BME280;3286;49.858;8.768;2023-02-12T10:40:17;101393.00;;;11.60;54.22
6506;BME280;3286;49.858;8.768;2023-02-12T10:42:46;101385.91;;;11.60;54.42
6506;BME280;3286;49.858;8.768;2023-02-12T10:45:17;101384.78;;;11.91;53.50
6506;BME280;3286;49.858;8.768;2023-02-12T10:47:46;101377.47;;;12.33;52.38
6506;BME280;3286;49.858;8.768;2023-02-12T10:50:20;101381.22;;;11.51;54.42
6506;BME280;3286;49.858;8.768;2023-02-12T10:52:52;101381.25;;;11.24;55.50
6506;BME280;3286;49.858;8.768;2023-02-12T10:55:25;101380.81;;;11.44;54.49
6506;BME280;3286;49.858;8.768;2023-02-12T10:57:53;101369.94;;;11.75;53.26
6506;BME280;3286;49.858;8.768;2023-02-12T11:00:25;101374.78;;;11.42;54.83
6506;BME280;3286;49.858;8.768;2023-02-12T11:03:19;101365.63;;;11.87;54.16
6506;BME280;3286;49.858;8.768;2023-02-12T11:05:47;101368.31;;;11.59;54.38
6506;BME280;3286;49.858;8.768;2023-02-12T11:08:30;101365.81;;;11.71;53.05
6506;BME280;3286;49.858;8.768;2023-02-12T11:11:06;101363.81;;;11.87;53.49
6506;BME280;3286;49.858;8.768;2023-02-12T11:13:34;101364.31;;;11.93;52.81
6506;BME280;3286;49.858;8.768;2023-02-12T11:16:03;101363.25;;;10.89;56.00
6506;BME280;3286;49.858;8.768;2023-02-12T11:18:31;101361.25;;;11.99;53.67
6506;BME280;3286;49.858;8.768;2023-02-12T11:21:00;101349.41;;;12.17;52.38
6506;BME280;3286;49.858;8.768;2023-02-12T11:23:28;101347.81;;;11.89;52.70
6506;BME280;3286;49.858;8.768;2023-02-12T11:25:58;101347.38;;;11.95;52.59
6506;BME280;3286;49.858;8.768;2023-02-12T11:28:25;101334.78;;;12.12;52.37
6506;BME280;3286;49.858;8.768;2023-02-12T11:30:54;101331.47;;;12.96;51.14
6506;BME280;3286;49.858;8.768;2023-02-12T11:33:26;101333.94;;;12.61;51.74
6506;BME280;3286;49.858;8.768;2023-02-12T11:35:55;101329.22;;;13.02;50.48
6506;BME280;3286;49.858;8.768;2023-02-12T11:38:32;101321.28;;;13.14;50.08
6506;BME280;3286;49.858;8.768;2023-02-12T11:41:04;101326.72;;;12.64;51.36
6506;BME280;3286;49.858;8.768;2023-02-12T11:43:33;101317.63;;;12.55;51.34
6506;BME280;3286;49.858;8.768;2023-02-12T11:46:02;101322.91;;;12.17;52.07
6506;BME280;3286;49.858;8.768;2023-02-12T11:48:32;101312.84;;;12.60;51.60
6506;BME280;3286;49.858;8.768;2023-02-12T11:51:03;101309.53;;;12.69;50.52
6506;BME280;3286;49.858;8.768;2023-02-12T11:53:34;101310.19;;;12.84;50.55
6506;BME280;3286;49.858;8.768;2023-02-12T11:56:04;101309.22;;;12.37;51.26
6506;BME280;3286;49.858;8.768;2023-02-12T11:58:31;101308.19;;;12.13;51.68
6506;BME280;3286;49.858;8.768;2023-02-12T12:01:03;101297.16;;;12.57;51.41
6506;BME280;3286;49.858;8.768;2023-02-12T12:03:36;101294.97;;;12.51;51.05
6506;BME280;3286;49.858;8.768;2023-02-12T12:06:11;101290.13;;;12.69;50.78
6506;BME280;3286;49.858;8.768;2023-02-12T12:08:46;101289.91;;;13.08;49.89
6506;BME280;3286;49.858;8.768;2023-02-12T12:11:17;101290.00;;;13.30;49.58
6506;BME280;3286;49.858;8.768;2023-02-12T12:13:48;101290.78;;;13.44;49.20
6506;BME280;3286;49.858;8.768;2023-02-12T12:16:21;101285.88;;;13.26;49.03
6506;BME280;3286;49.858;8.768;2023-02-12T12:19:14;101283.44;;;13.70;47.71
6506;BME280;3286;49.858;8.768;2023-02-12T12:22:02;101289.50;;;13.01;49.31
6506;BME280;3286;49.858;8.768;2023-02-12T12:24:37;101278.66;;;13.40;48.94
6506;BME280;3286;49.858;8.768;2023-02-12T12:27:11;101282.09;;;13.53;48.14
6506;BME280;3286;49.858;8.768;2023-02-12T12:30:10;101282.84;;;13.19;49.01
6506;BME280;3286;49.858;8.768;2023-02-12T12:32:42;101273.69;;;13.24;49.33
6506;BME280;3286;49.858;8.768;2023-02-12T12:35:17;101272.91;;;12.74;50.14
6506;BME280;3286;49.858;8.768;2023-02-12T12:37:46;101264.84;;;13.23;48.92
6506;BME280;3286;49.858;8.768;2023-02-12T12:40:28;101268.00;;;13.64;47.84
6506;BME280;3286;49.858;8.768;2023-02-12T12:43:12;101272.06;;;13.45;48.03
6506;BME280;3286;49.858;8.768;2023-02-12T12:49:25;101266.44;;;13.26;48.90
6506;BME280;3286;49.858;8.768;2023-02-12T12:52:11;101265.22;;;13.88;47.65
6506;BME280;3286;49.858;8.768;2023-02-12T12:54:55;101254.97;;;13.95;46.94
6506;BME280;3286;49.858;8.768;2023-02-12T12:57:35;101251.31;;;13.85;46.24
6506;BME280;3286;49.858;8.768;2023-02-12T13:00:18;101255.41;;;14.12;45.76
6506;BME280;3286;49.858;8.768;2023-02-12T13:03:21;101251.56;;;13.82;45.93
6506;BME280;3286;49.858;8.768;2023-02-12T13:06:10;101241.13;;;13.33;47.59
6506;BME280;3286;49.858;8.768;2023-02-12T13:08:55;101248.31;;;13.08;48.12
6506;BME280;3286;49.858;8.768;2023-02-12T13:11:35;101235.81;;;13.33;47.50
6506;BME280;3286;49.858;8.768;2023-02-12T13:16:59;101239.66;;;13.17;47.99
6506;BME280;3286;49.858;8.768;2023-02-12T13:19:39;101232.13;;;13.47;47.12
6506;BME280;3286;49.858;8.768;2023-02-12T13:22:12;101224.53;;;13.88;46.68
6506;BME280;3286;49.858;8.768;2023-02-12T13:24:46;101234.34;;;13.29;48.02
6506;BME280;3286;49.858;8.768;2023-02-12T13:27:18;101231.41;;;13.90;46.65
6506;BME280;3286;49.858;8.768;2023-02-12T13:29:49;101230.69;;;13.54;47.67
6506;BME280;3286;49.858;8.768;2023-02-12T13:32:22;101230.31;;;13.82;47.50
6506;BME280;3286;49.858;8.768;2023-02-12T13:34:52;101228.41;;;14.39;46.02
6506;BME280;3286;49.858;8.768;2023-02-12T13:37:24;101229.34;;;13.83;46.50
6506;BME280;3286;49.858;8.768;2023-02-12T13:39:59;101234.97;;;12.85;49.31
6506;BME280;3286;49.858;8.768;2023-02-12T13:42:39;101223.16;;;13.37;47.99
6506;BME280;3286;49.858;8.768;2023-02-12T13:45:29;101222.72;;;13.88;47.38
6506;BME280;3286;49.858;8.768;2023-02-12T13:48:14;101213.66;;;13.80;46.94
6506;BME280;3286;49.858;8.768;2023-02-12T13:50:49;101217.06;;;13.59;47.87